Accueil
METAR-TAF:

METAR-TAF

Aéroports :

Aéroport Albert-Picardie

Albert, France

latitude: 49-58-21N, longitude: 002-41-29E, altitude: 111 m

Observation

Le bulletin a été fait il y a 25 minutes, à 20:30 UTC
Vent 5 kt de nord/nord-ouest
Température -3°C
Humidité 100%
Pression 1039 hPa
Visibilité: 0700 m
bancs de brouillard

METAR: LFAQ 212030Z AUTO 34005KT 1000 0700 R27/2200D BCFG VV/// M03/M03 Q1039

Heure: 21:55 (20:55 UTC)

Prévision

Le bulletin a été fait il y a 3 heures et 55 minutes, à 17:00 UTC
Prévision valable du 21 à 17 UTC au 21 à 24 UTC
Vent 2 kt de direction variable
Visibilité: 0600 m
Nuages épars à une hauteur de 200 ft
Nuages fragmentés à une hauteur de 2000 ft
brouillard givrant
Evoluant progressivement
du 21 à 17 UTC au 21 à 20 UTC
Visibilité: 0300 m

TAF: LFAQ 211700Z 2117/2124 VRB02KT 0600 FZFG SCT002 BKN020 BECMG 2117/2120 0300 VV///

Observations et prévisions météorologiques de plus de 4000 aéroports (messages METAR et TAF).

Les stations disponibles sont représentées par des disques jaunes et rouges sur la carte.

Passer la souris dessus pour voir le nom de la station.

Cliquer dessus pour voir les observations et prévisions météorologiques.

Pour changer de carte: cliquez sur les boutons verts avec une croix noire pour zoomer, sur le bouton vert avec un tiret pour effectuer un zoom arrière, ou sur les flèches vertes pour les cartes adjacentes.


METAR-TAF: